createdAt,value
2022-12-06T00:00:02.592Z,-7.71
2022-12-06T00:02:07.278Z,-7.66
2022-12-06T00:03:07.480Z,-7.71
2022-12-06T00:04:10.612Z,-7.71
2022-12-06T00:05:08.819Z,-7.75
2022-12-06T00:06:11.645Z,-7.78
2022-12-06T00:07:09.090Z,-7.76
2022-12-06T00:08:09.563Z,-7.71
2022-12-06T00:10:14.090Z,-7.72
2022-12-06T00:12:15.540Z,-7.66
2022-12-06T00:13:15.860Z,-7.63
2022-12-06T00:14:16.680Z,-7.63
2022-12-06T00:15:16.929Z,-7.62
2022-12-06T00:16:17.639Z,-7.63
2022-12-06T00:17:17.462Z,-7.66
2022-12-06T00:18:17.968Z,-7.71
2022-12-06T00:19:21.967Z,-7.73
2022-12-06T00:20:19.820Z,-7.67
2022-12-06T00:21:25.673Z,-7.71
2022-12-06T00:22:23.120Z,-7.73
2022-12-06T00:23:26.476Z,-7.74
2022-12-06T00:24:26.401Z,-7.71
2022-12-06T00:25:26.717Z,-7.69
2022-12-06T00:26:27.336Z,-7.7
2022-12-06T00:27:27.343Z,-7.68
2022-12-06T00:28:27.770Z,-7.74
2022-12-06T00:29:28.175Z,-7.73
2022-12-06T00:30:28.493Z,-7.82
2022-12-06T00:31:31.030Z,-7.7
2022-12-06T00:32:29.680Z,-7.65
2022-12-06T00:33:30.252Z,-7.79
2022-12-06T00:34:30.276Z,-7.84
2022-12-06T00:35:30.580Z,-7.85
2022-12-06T00:36:36.732Z,-7.79
2022-12-06T00:37:34.405Z,-7.75
2022-12-06T00:38:34.892Z,-7.72
2022-12-06T00:39:34.761Z,-7.69
2022-12-06T00:40:35.122Z,-7.71
2022-12-06T00:41:35.644Z,-7.72
2022-12-06T00:42:36.041Z,-7.69
2022-12-06T00:43:37.189Z,-7.71
2022-12-06T00:44:36.789Z,-7.69
2022-12-06T00:45:37.239Z,-7.74
2022-12-06T00:46:38.541Z,-7.73
2022-12-06T00:47:37.917Z,-7.73
2022-12-06T00:48:38.244Z,-7.73
2022-12-06T00:49:38.553Z,-7.8
2022-12-06T00:50:39.089Z,-7.76
2022-12-06T00:51:40.619Z,-7.7
2022-12-06T00:52:39.698Z,-7.66
2022-12-06T00:53:40.120Z,-7.74
2022-12-06T00:54:40.541Z,-7.76
2022-12-06T00:55:40.789Z,-7.76
2022-12-06T00:56:41.469Z,-7.72
2022-12-06T00:57:41.580Z,-7.77
2022-12-06T00:58:42.352Z,-7.73
2022-12-06T00:59:42.509Z,-7.73
2022-12-06T01:00:43.228Z,-7.69
2022-12-06T01:01:43.257Z,-7.63
2022-12-06T01:02:43.482Z,-7.61
2022-12-06T01:03:45.414Z,-7.71
2022-12-06T01:04:44.340Z,-7.74
2022-12-06T01:05:47.668Z,-7.73
2022-12-06T01:06:45.419Z,-7.72
2022-12-06T01:07:45.625Z,-7.71
2022-12-06T01:08:45.848Z,-7.67
2022-12-06T01:09:46.570Z,-7.67
2022-12-06T01:10:53.852Z,-7.69
2022-12-06T01:11:51.300Z,-7.7
2022-12-06T01:12:51.812Z,-7.73
2022-12-06T01:13:52.941Z,-7.76
2022-12-06T01:14:52.439Z,-7.75
2022-12-06T01:15:52.751Z,-7.71
2022-12-06T01:16:53.225Z,-7.68
2022-12-06T01:17:53.492Z,-7.79
2022-12-06T01:18:59.389Z,-7.78
2022-12-06T01:19:57.070Z,-7.76
2022-12-06T01:20:57.286Z,-7.72
2022-12-06T01:21:57.493Z,-7.71
2022-12-06T01:22:57.817Z,-7.68
2022-12-06T01:23:58.961Z,-7.69
2022-12-06T01:24:58.820Z,-7.73
2022-12-06T01:25:58.965Z,-7.73
2022-12-06T01:26:59.490Z,-7.73
2022-12-06T01:27:59.903Z,-7.71
2022-12-06T01:29:00.932Z,-7.81
2022-12-06T01:30:00.972Z,-7.79
2022-12-06T01:31:06.220Z,-7.73
2022-12-06T01:32:03.811Z,-7.67
2022-12-06T01:33:04.360Z,-7.68
2022-12-06T01:34:04.455Z,-7.74
2022-12-06T01:35:05.583Z,-7.79
2022-12-06T01:36:05.482Z,-7.77
2022-12-06T01:37:05.612Z,-7.79
2022-12-06T01:38:06.492Z,-7.74
2022-12-06T01:39:06.201Z,-7.71
2022-12-06T01:40:08.175Z,-7.66
2022-12-06T01:41:07.003Z,-7.67
2022-12-06T01:42:09.712Z,-7.7
2022-12-06T01:45:11.788Z,-7.66
2022-12-06T01:48:15.181Z,-7.74
2022-12-06T01:51:19.303Z,-7.73
2022-12-06T01:52:22.677Z,-7.74
2022-12-06T01:53:25.279Z,-7.77
2022-12-06T01:54:25.767Z,-7.73
2022-12-06T01:55:26.796Z,-7.68
2022-12-06T01:56:24.138Z,-7.71
2022-12-06T01:57:24.876Z,-7.75
2022-12-06T01:58:32.144Z,-7.73
2022-12-06T01:59:29.938Z,-7.68
2022-12-06T02:00:29.699Z,-7.63
2022-12-06T02:01:30.748Z,-7.65
2022-12-06T02:02:30.830Z,-7.64
2022-12-06T02:03:33.612Z,-7.65
2022-12-06T02:04:32.055Z,-7.67
2022-12-06T02:05:36.133Z,-7.68
2022-12-06T02:06:37.224Z,-7.66
2022-12-06T02:07:37.761Z,-7.65
2022-12-06T02:08:38.832Z,-7.64
2022-12-06T02:09:38.765Z,-7.7
2022-12-06T02:10:38.849Z,-7.77
2022-12-06T02:11:40.532Z,-7.79
2022-12-06T02:12:38.894Z,-7.76
2022-12-06T02:13:39.900Z,-7.72
2022-12-06T02:14:40.550Z,-7.7
2022-12-06T02:18:00.953Z,-7.65
2022-12-06T02:22:14.994Z,-7.74
2022-12-06T02:32:42.473Z,-7.61
2022-12-06T02:35:43.144Z,-7.64
2022-12-06T02:47:02.361Z,-7.62
2022-12-06T02:48:03.394Z,-7.61
2022-12-06T02:49:04.254Z,-7.58
2022-12-06T02:50:05.762Z,-7.53
2022-12-06T02:52:05.752Z,-7.6
2022-12-06T02:54:10.714Z,-7.73
2022-12-06T02:55:10.498Z,-7.74
2022-12-06T02:56:09.180Z,-7.74
2022-12-06T02:57:09.293Z,-7.73
2022-12-06T02:58:10.788Z,-7.69
2022-12-06T02:59:10.629Z,-7.64
2022-12-06T03:01:20.767Z,-7.65
2022-12-06T03:02:18.569Z,-7.66
2022-12-06T03:16:04.990Z,-7.73
2022-12-06T03:21:18.979Z,-7.84
2022-12-06T03:22:24.805Z,-7.75
2022-12-06T03:23:23.080Z,-7.72
2022-12-06T03:24:22.572Z,-7.7
2022-12-06T03:25:21.461Z,-7.75
2022-12-06T03:26:26.483Z,-7.7
2022-12-06T03:27:25.758Z,-7.65
2022-12-06T03:28:24.686Z,-7.69
2022-12-06T03:29:28.231Z,-7.7
2022-12-06T03:30:25.685Z,-7.67
2022-12-06T03:31:28.931Z,-7.67
2022-12-06T03:32:30.924Z,-7.66
2022-12-06T03:33:30.222Z,-7.72
2022-12-06T03:34:35.741Z,-7.72
2022-12-06T03:35:35.863Z,-7.71
2022-12-06T03:36:34.230Z,-7.68
2022-12-06T03:37:38.023Z,-7.65
2022-12-06T03:38:40.887Z,-7.67
2022-12-06T03:40:42.095Z,-7.67
2022-12-06T03:42:44.700Z,-7.67
2022-12-06T03:43:45.122Z,-7.72
2022-12-06T03:44:45.949Z,-7.72
2022-12-06T03:46:56.337Z,-7.7
2022-12-06T03:52:03.394Z,-7.68
2022-12-06T03:53:02.904Z,-7.67
2022-12-06T03:54:05.572Z,-7.62
2022-12-06T03:55:04.103Z,-7.59
2022-12-06T03:56:04.562Z,-7.72
2022-12-06T03:57:04.356Z,-7.79
2022-12-06T03:58:04.537Z,-7.82
2022-12-06T03:59:06.268Z,-7.76
2022-12-06T04:00:06.629Z,-7.72
2022-12-06T04:01:05.901Z,-7.69
2022-12-06T04:02:06.447Z,-7.64
2022-12-06T04:03:06.551Z,-7.62
2022-12-06T04:04:07.060Z,-7.6
2022-12-06T04:05:07.844Z,-7.54
2022-12-06T04:06:09.021Z,-7.64
2022-12-06T04:07:09.750Z,-7.64
2022-12-06T04:08:08.464Z,-7.68
2022-12-06T04:09:08.736Z,-7.64
2022-12-06T04:10:09.770Z,-7.65
2022-12-06T04:11:09.531Z,-7.64
2022-12-06T04:12:09.778Z,-7.58
2022-12-06T04:13:13.137Z,-7.62
2022-12-06T04:14:14.210Z,-7.6
2022-12-06T04:15:15.346Z,-7.6
2022-12-06T04:16:15.104Z,-7.68
2022-12-06T04:17:15.241Z,-7.65
2022-12-06T04:18:16.557Z,-7.63
2022-12-06T04:19:15.990Z,-7.62
2022-12-06T04:20:16.590Z,-7.57
2022-12-06T04:21:16.619Z,-7.57
2022-12-06T04:22:17.132Z,-7.6
2022-12-06T04:23:18.664Z,-7.63
2022-12-06T04:24:18.584Z,-7.67
2022-12-06T04:25:18.385Z,-7.61
2022-12-06T04:26:21.968Z,-7.56
2022-12-06T04:27:19.406Z,-7.54
2022-12-06T04:28:19.669Z,-7.56
2022-12-06T04:29:20.556Z,-7.61
2022-12-06T04:30:20.462Z,-7.62
2022-12-06T04:31:22.523Z,-7.59
2022-12-06T04:32:21.042Z,-7.6
2022-12-06T04:33:21.485Z,-7.58
2022-12-06T04:34:22.210Z,-7.54
2022-12-06T04:35:22.290Z,-7.55
2022-12-06T04:36:22.734Z,-7.6
2022-12-06T04:37:23.155Z,-7.63
2022-12-06T04:38:23.367Z,-7.58
2022-12-06T04:39:24.289Z,-7.53
2022-12-06T04:40:24.398Z,-7.6
2022-12-06T04:41:24.683Z,-7.59
2022-12-06T04:42:24.933Z,-7.58
2022-12-06T04:43:25.400Z,-7.58
2022-12-06T04:44:25.673Z,-7.55
2022-12-06T04:45:26.072Z,-7.52
2022-12-06T04:46:26.751Z,-7.59
2022-12-06T04:47:26.904Z,-7.58
2022-12-06T04:48:27.428Z,-7.6
2022-12-06T04:49:27.939Z,-7.65
2022-12-06T04:50:28.068Z,-7.53
2022-12-06T04:51:28.896Z,-7.51
2022-12-06T04:52:34.051Z,-7.51
2022-12-06T04:53:33.345Z,-7.55
2022-12-06T04:54:33.609Z,-7.56
2022-12-06T04:55:33.568Z,-7.57
2022-12-06T04:56:34.443Z,-7.59
2022-12-06T04:57:34.558Z,-7.6
2022-12-06T04:58:35.176Z,-7.56
2022-12-06T04:59:35.281Z,-7.54
2022-12-06T05:00:35.649Z,-7.53
2022-12-06T05:01:36.435Z,-7.53
2022-12-06T05:02:36.436Z,-7.52
2022-12-06T05:03:40.952Z,-7.55
2022-12-06T05:04:41.975Z,-7.5
2022-12-06T05:05:42.506Z,-7.45
2022-12-06T05:06:42.287Z,-7.49
2022-12-06T05:07:42.527Z,-7.53
2022-12-06T05:08:43.045Z,-7.55
2022-12-06T05:09:43.538Z,-7.51
2022-12-06T05:11:45.703Z,-7.49
2022-12-06T05:12:46.125Z,-7.49
2022-12-06T05:13:46.434Z,-7.49
2022-12-06T05:14:46.753Z,-7.47
2022-12-06T05:16:48.289Z,-7.41
2022-12-06T05:17:48.604Z,-7.41
2022-12-06T05:18:48.778Z,-7.35
2022-12-06T05:19:49.361Z,-7.37
2022-12-06T05:20:49.548Z,-7.41
2022-12-06T05:21:50.167Z,-7.37
2022-12-06T05:22:50.596Z,-7.4
2022-12-06T05:23:53.353Z,-7.43
2022-12-06T05:24:51.233Z,-7.43
2022-12-06T05:25:51.522Z,-7.43
2022-12-06T05:26:52.071Z,-7.37
2022-12-06T05:28:53.559Z,-7.4
2022-12-06T05:29:53.101Z,-7.4
2022-12-06T05:30:53.374Z,-7.4
2022-12-06T05:31:53.973Z,-7.4
2022-12-06T05:32:57.065Z,-7.45
2022-12-06T05:33:54.617Z,-7.43
2022-12-06T05:34:54.968Z,-7.36
2022-12-06T05:35:55.435Z,-7.36
2022-12-06T05:36:55.792Z,-7.32
2022-12-06T05:37:56.048Z,-7.38
2022-12-06T05:38:57.038Z,-7.33
2022-12-06T05:39:57.064Z,-7.41
2022-12-06T05:40:57.569Z,-7.46
2022-12-06T05:41:57.772Z,-7.5
2022-12-06T05:42:58.044Z,-7.48
2022-12-06T05:43:58.406Z,-7.42
2022-12-06T05:44:58.825Z,-7.42
2022-12-06T05:46:00.183Z,-7.42
2022-12-06T05:46:59.855Z,-7.44
2022-12-06T05:48:00.071Z,-7.42
2022-12-06T05:49:00.484Z,-7.4
2022-12-06T05:50:01.109Z,-7.38
2022-12-06T05:51:01.426Z,-7.36
2022-12-06T05:52:04.158Z,-7.39
2022-12-06T05:53:02.343Z,-7.34
2022-12-06T05:54:02.317Z,-7.3
2022-12-06T05:55:02.773Z,-7.29
2022-12-06T05:56:07.397Z,-7.32
2022-12-06T05:57:04.833Z,-7.33
2022-12-06T05:58:05.397Z,-7.41
2022-12-06T05:59:05.773Z,-7.39
2022-12-06T06:00:07.074Z,-7.37
2022-12-06T06:01:07.440Z,-7.38
2022-12-06T06:02:06.728Z,-7.41
2022-12-06T06:03:07.471Z,-7.42
2022-12-06T06:04:07.680Z,-7.46
2022-12-06T06:05:08.471Z,-7.43
2022-12-06T06:06:08.528Z,-7.37
2022-12-06T06:07:08.434Z,-7.36
2022-12-06T06:08:09.017Z,-7.33
2022-12-06T06:09:09.419Z,-7.23
2022-12-06T06:10:10.395Z,-7.24
2022-12-06T06:11:10.117Z,-7.29
2022-12-06T06:12:12.653Z,-7.27
2022-12-06T06:13:10.988Z,-7.26
2022-12-06T06:14:11.298Z,-7.24
2022-12-06T06:15:13.099Z,-7.2
2022-12-06T06:16:12.025Z,-7.16
2022-12-06T06:17:12.461Z,-7.19
2022-12-06T06:18:12.761Z,-7.22
2022-12-06T06:19:13.788Z,-7.25
2022-12-06T06:20:13.812Z,-7.25
2022-12-06T06:21:14.310Z,-7.22
2022-12-06T06:22:14.324Z,-7.2
2022-12-06T06:23:14.842Z,-7.17
2022-12-06T06:24:15.151Z,-7.13
2022-12-06T06:25:15.631Z,-7.18
2022-12-06T06:26:15.880Z,-7.14
2022-12-06T06:27:16.193Z,-7.13
2022-12-06T06:28:17.434Z,-7.15
2022-12-06T06:29:17.028Z,-7.16
2022-12-06T06:30:17.962Z,-7.15
2022-12-06T06:31:17.947Z,-7.16
2022-12-06T06:32:18.373Z,-7.14
2022-12-06T06:33:18.544Z,-7.12
2022-12-06T06:34:19.309Z,-7.16
2022-12-06T06:35:19.426Z,-7.12
2022-12-06T06:36:19.841Z,-7.12
2022-12-06T06:37:20.457Z,-7.07
2022-12-06T06:38:20.571Z,-7.11
2022-12-06T06:39:20.881Z,-7.09
2022-12-06T06:41:21.818Z,-7.15
2022-12-06T06:42:22.557Z,-7.15
2022-12-06T06:43:22.546Z,-7.13
2022-12-06T06:44:22.964Z,-7.09
2022-12-06T06:45:28.565Z,-7.1
2022-12-06T06:46:26.941Z,-7.09
2022-12-06T06:47:27.191Z,-7.12
2022-12-06T06:48:30.150Z,-7.05
2022-12-06T06:49:27.907Z,-7.01
2022-12-06T06:50:28.366Z,-7.09
2022-12-06T06:51:30.691Z,-7.08
2022-12-06T06:52:29.256Z,-7.06
2022-12-06T06:53:29.504Z,-7.03
2022-12-06T06:54:29.884Z,-7.05
2022-12-06T06:55:30.409Z,-6.99
2022-12-06T06:56:30.628Z,-6.95
2022-12-06T06:57:31.349Z,-6.97
2022-12-06T06:58:31.666Z,-7.03
2022-12-06T06:59:31.768Z,-7.1
2022-12-06T07:00:35.154Z,-7.03
2022-12-06T07:01:32.805Z,-6.98
2022-12-06T07:02:33.288Z,-6.95
2022-12-06T07:03:34.459Z,-6.92
2022-12-06T07:04:33.856Z,-6.88
2022-12-06T07:05:34.462Z,-6.84
2022-12-06T07:06:34.592Z,-6.88
2022-12-06T07:07:35.091Z,-6.88
2022-12-06T07:08:35.612Z,-6.87
2022-12-06T07:09:36.037Z,-6.88
2022-12-06T07:10:36.149Z,-6.89
2022-12-06T07:11:36.715Z,-6.94
2022-12-06T07:12:37.179Z,-6.92
2022-12-06T07:13:38.928Z,-6.85
2022-12-06T07:14:38.044Z,-6.88
2022-12-06T07:15:38.120Z,-6.84
2022-12-06T07:16:38.563Z,-6.78
2022-12-06T07:17:38.902Z,-6.81
2022-12-06T07:18:39.265Z,-6.72
2022-12-06T07:19:39.788Z,-6.78
2022-12-06T07:20:40.101Z,-6.83
2022-12-06T07:21:40.621Z,-6.82
2022-12-06T07:22:41.026Z,-6.76
2022-12-06T07:23:41.402Z,-6.79
2022-12-06T07:24:44.551Z,-6.7
2022-12-06T07:25:45.578Z,-6.65
2022-12-06T07:26:45.878Z,-6.65
2022-12-06T07:27:46.308Z,-6.66
2022-12-06T07:28:48.854Z,-6.64
2022-12-06T07:29:46.999Z,-6.68
2022-12-06T07:30:47.393Z,-6.7
2022-12-06T07:31:47.752Z,-6.75
2022-12-06T07:32:48.265Z,-6.69
2022-12-06T07:33:51.251Z,-6.67
2022-12-06T07:34:48.891Z,-6.64
2022-12-06T07:36:50.348Z,-6.61
2022-12-06T07:37:50.657Z,-6.57
2022-12-06T07:38:53.527Z,-6.55
2022-12-06T07:39:51.690Z,-6.56
2022-12-06T07:41:07.205Z,-6.56
2022-12-06T07:41:54.780Z,-6.5
2022-12-06T07:42:55.103Z,-6.53
2022-12-06T07:43:57.824Z,-6.5
2022-12-06T07:45:01.311Z,-6.44
2022-12-06T07:45:59.570Z,-6.48
2022-12-06T07:47:00.143Z,-6.58
2022-12-06T07:48:00.459Z,-6.55
2022-12-06T07:49:00.840Z,-6.55
2022-12-06T07:50:01.734Z,-6.59
2022-12-06T07:51:07.639Z,-6.53
2022-12-06T07:52:05.389Z,-6.51
2022-12-06T07:53:05.394Z,-6.53
2022-12-06T07:54:06.390Z,-6.52
2022-12-06T07:55:07.761Z,-6.48
2022-12-06T07:56:08.053Z,-6.47
2022-12-06T07:57:06.954Z,-6.52
2022-12-06T07:58:07.455Z,-6.46
2022-12-06T07:59:07.996Z,-6.43
2022-12-06T08:00:10.978Z,-6.45
2022-12-06T08:01:08.610Z,-6.45
2022-12-06T08:02:22.563Z,-6.43
2022-12-06T08:03:10.071Z,-6.42
2022-12-06T08:04:10.626Z,-6.38
2022-12-06T08:05:11.722Z,-6.43
2022-12-06T08:06:11.113Z,-6.44
2022-12-06T08:07:11.644Z,-6.4
2022-12-06T08:08:11.893Z,-6.36
2022-12-06T08:09:12.361Z,-6.45
2022-12-06T08:10:12.998Z,-6.42
2022-12-06T08:11:13.302Z,-6.41
2022-12-06T08:12:13.926Z,-6.51
2022-12-06T08:13:13.980Z,-6.43
2022-12-06T08:14:14.349Z,-6.44
2022-12-06T08:15:15.145Z,-6.46
2022-12-06T08:16:15.224Z,-6.45
2022-12-06T08:17:16.205Z,-6.36
2022-12-06T08:18:16.015Z,-6.33
2022-12-06T08:19:16.231Z,-6.39
2022-12-06T08:20:16.938Z,-6.46
2022-12-06T08:21:17.353Z,-6.44
2022-12-06T08:22:17.462Z,-6.37
2022-12-06T08:23:17.907Z,-6.31
2022-12-06T08:24:18.601Z,-6.31
2022-12-06T08:25:18.717Z,-6.33
2022-12-06T08:26:19.147Z,-6.38
2022-12-06T08:27:19.446Z,-6.32
2022-12-06T08:28:19.769Z,-6.28
2022-12-06T08:29:20.475Z,-6.28
2022-12-06T08:30:20.807Z,-6.23
2022-12-06T08:31:23.916Z,-6.29
2022-12-06T08:32:21.491Z,-6.28
2022-12-06T08:33:21.948Z,-6.19
2022-12-06T08:34:22.255Z,-6.22
2022-12-06T08:35:22.772Z,-6.23
2022-12-06T08:36:24.321Z,-6.22
2022-12-06T08:37:23.464Z,-6.2
2022-12-06T08:38:23.824Z,-6.22
2022-12-06T08:39:24.342Z,-6.27
2022-12-06T08:40:24.653Z,-6.28
2022-12-06T08:41:25.178Z,-6.2
2022-12-06T08:42:25.799Z,-6.24
2022-12-06T08:43:25.757Z,-6.25
2022-12-06T08:44:27.961Z,-6.22
2022-12-06T08:45:26.954Z,-6.24
2022-12-06T08:46:28.513Z,-6.25
2022-12-06T08:47:27.469Z,-6.32
2022-12-06T08:48:27.776Z,-6.35
2022-12-06T08:49:30.036Z,-6.31
2022-12-06T08:50:28.876Z,-6.31
2022-12-06T08:51:29.744Z,-6.25
2022-12-06T08:52:29.545Z,-6.28
2022-12-06T08:53:30.525Z,-6.24
2022-12-06T08:54:31.092Z,-6.24
2022-12-06T08:55:31.306Z,-6.26
2022-12-06T08:56:32.038Z,-6.21
2022-12-06T08:57:33.366Z,-6.27
2022-12-06T08:58:32.709Z,-6.23
2022-12-06T08:59:33.283Z,-6.27
2022-12-06T09:00:33.276Z,-6.33
2022-12-06T09:01:37.997Z,-6.33
2022-12-06T09:02:38.415Z,-6.3
2022-12-06T09:03:36.690Z,-6.24
2022-12-06T09:04:37.328Z,-6.21
2022-12-06T09:05:37.304Z,-6.18
2022-12-06T09:06:39.776Z,-6.13
2022-12-06T09:07:38.184Z,-6.19
2022-12-06T09:08:38.894Z,-6.12
2022-12-06T09:09:39.329Z,-6.05
2022-12-06T09:10:39.352Z,-6.08
2022-12-06T09:11:40.732Z,-6.07
2022-12-06T09:12:40.020Z,-5.97
2022-12-06T09:13:41.220Z,-5.97
2022-12-06T09:14:41.059Z,-6.02
2022-12-06T09:15:41.621Z,-6
2022-12-06T09:16:43.127Z,-5.95
2022-12-06T09:17:41.970Z,-6
2022-12-06T09:18:44.457Z,-6.02
2022-12-06T09:19:43.135Z,-5.97
2022-12-06T09:20:43.257Z,-5.95
2022-12-06T09:21:44.073Z,-5.96
2022-12-06T09:22:45.006Z,-6.1
2022-12-06T09:23:44.908Z,-6.11
2022-12-06T09:24:45.216Z,-6.06
2022-12-06T09:25:45.326Z,-6.04
2022-12-06T09:26:45.757Z,-6.03
2022-12-06T09:27:45.949Z,-6.04
2022-12-06T09:28:48.006Z,-6.05
2022-12-06T09:29:47.369Z,-6.01
2022-12-06T09:30:47.357Z,-6.01
2022-12-06T09:31:47.939Z,-6.07
2022-12-06T09:32:48.147Z,-5.99
2022-12-06T09:33:48.660Z,-5.98
2022-12-06T09:34:48.774Z,-5.98
2022-12-06T09:35:51.436Z,-5.98
2022-12-06T09:37:50.778Z,-5.96
2022-12-06T09:39:54.179Z,-5.98
2022-12-06T09:56:41.134Z,-5.96
2022-12-06T10:06:03.014Z,-5.94
2022-12-06T10:26:52.622Z,-5.92
2022-12-06T10:29:59.414Z,-5.86
2022-12-06T10:31:08.984Z,-5.82
2022-12-06T10:34:22.531Z,-5.74
2022-12-06T10:45:49.362Z,-5.8
2022-12-06T10:46:53.165Z,-5.8
2022-12-06T10:47:45.973Z,-5.9
2022-12-06T10:53:13.236Z,-5.72
2022-12-06T10:54:10.891Z,-5.71
2022-12-06T11:07:37.886Z,-5.7
2022-12-06T11:08:38.221Z,-5.65
2022-12-06T11:10:34.853Z,-5.7
2022-12-06T11:11:36.897Z,-5.75
2022-12-06T11:12:38.802Z,-5.74
2022-12-06T11:13:45.211Z,-5.73
2022-12-06T11:14:45.115Z,-5.75
2022-12-06T11:15:50.197Z,-5.77
2022-12-06T11:17:47.493Z,-5.69
2022-12-06T11:18:46.175Z,-5.64
2022-12-06T11:21:56.749Z,-5.78
2022-12-06T11:32:16.977Z,-5.74
2022-12-06T11:33:15.649Z,-5.74
2022-12-06T11:36:24.680Z,-5.71
2022-12-06T11:37:27.049Z,-5.75
2022-12-06T11:38:24.590Z,-5.71
2022-12-06T11:39:26.040Z,-5.68
2022-12-06T11:41:33.623Z,-5.69
2022-12-06T11:42:31.376Z,-5.69
2022-12-06T11:43:33.532Z,-5.62
2022-12-06T11:45:34.472Z,-5.58
2022-12-06T11:46:33.215Z,-5.64
2022-12-06T11:47:33.263Z,-5.57
2022-12-06T11:48:35.718Z,-5.52
2022-12-06T11:50:38.520Z,-5.59
2022-12-06T11:51:38.911Z,-5.54
2022-12-06T11:55:49.382Z,-5.52
2022-12-06T11:56:46.932Z,-5.48
2022-12-06T11:57:55.951Z,-5.48
2022-12-06T12:01:58.064Z,-5.53
2022-12-06T12:02:57.471Z,-5.56
2022-12-06T12:03:56.497Z,-5.51
2022-12-06T12:09:06.361Z,-5.41
2022-12-06T12:11:21.335Z,-5.42
2022-12-06T12:12:17.856Z,-5.35
2022-12-06T12:13:21.444Z,-5.33
2022-12-06T12:14:26.572Z,-5.31
2022-12-06T12:15:24.228Z,-5.33
2022-12-06T12:20:44.644Z,-5.46
2022-12-06T12:21:42.384Z,-5.47
2022-12-06T12:22:42.610Z,-5.51
2022-12-06T12:23:45.881Z,-5.49
2022-12-06T12:25:17.879Z,-5.4
2022-12-06T12:26:48.868Z,-5.43
2022-12-06T12:27:52.771Z,-5.5
2022-12-06T12:30:54.533Z,-5.46
2022-12-06T12:44:42.479Z,-5.55
2022-12-06T12:45:25.338Z,-5.53
2022-12-06T12:46:26.223Z,-5.55
2022-12-06T12:47:26.487Z,-5.5
2022-12-06T12:48:27.923Z,-5.48
2022-12-06T12:49:30.288Z,-5.45
2022-12-06T12:50:30.102Z,-5.47
2022-12-06T12:54:36.688Z,-5.49
2022-12-06T12:55:34.316Z,-5.48
2022-12-06T12:56:37.605Z,-5.49
2022-12-06T12:57:35.259Z,-5.48
2022-12-06T12:58:36.361Z,-5.46
2022-12-06T12:59:41.309Z,-5.43
2022-12-06T13:00:43.463Z,-5.49
2022-12-06T13:02:51.237Z,-5.54
2022-12-06T13:03:52.955Z,-5.53
2022-12-06T13:05:11.027Z,-5.55
2022-12-06T13:05:53.118Z,-5.58
2022-12-06T13:09:00.717Z,-5.46
2022-12-06T13:11:05.685Z,-5.47
2022-12-06T13:12:07.288Z,-5.41
2022-12-06T13:16:21.455Z,-5.49
2022-12-06T13:17:14.978Z,-5.46
2022-12-06T13:18:23.308Z,-5.51
2022-12-06T13:19:17.683Z,-5.5
2022-12-06T13:20:25.474Z,-5.48
2022-12-06T13:21:27.639Z,-5.49
2022-12-06T13:23:27.682Z,-5.55
2022-12-06T13:24:28.731Z,-5.51
2022-12-06T13:25:26.417Z,-5.47
2022-12-06T13:26:33.899Z,-5.48
2022-12-06T13:27:42.847Z,-5.46
2022-12-06T13:28:45.497Z,-5.43
2022-12-06T13:29:48.674Z,-5.44
2022-12-06T13:30:42.359Z,-5.5
2022-12-06T13:31:42.233Z,-5.54
2022-12-06T13:32:47.261Z,-5.53
2022-12-06T13:34:54.154Z,-5.5
2022-12-06T13:36:46.884Z,-5.56
2022-12-06T13:38:50.269Z,-5.46
2022-12-06T13:39:50.683Z,-5.48
2022-12-06T13:40:56.033Z,-5.52
2022-12-06T13:41:56.838Z,-5.5
2022-12-06T13:42:54.283Z,-5.47
2022-12-06T13:43:54.709Z,-5.42
2022-12-06T13:45:00.440Z,-5.46
2022-12-06T13:48:04.154Z,-5.45
2022-12-06T13:53:15.709Z,-5.4
2022-12-06T13:57:23.162Z,-5.39
2022-12-06T14:03:40.600Z,-5.42
2022-12-06T14:04:38.867Z,-5.39
2022-12-06T14:06:45.534Z,-5.41
2022-12-06T14:07:43.528Z,-5.37
2022-12-06T14:08:57.949Z,-5.33
2022-12-06T14:09:48.041Z,-5.33
2022-12-06T14:10:46.172Z,-5.37
2022-12-06T14:11:48.345Z,-5.37
2022-12-06T14:12:59.503Z,-5.36
2022-12-06T14:13:49.986Z,-5.37
2022-12-06T14:15:52.253Z,-5.33
2022-12-06T14:17:00.801Z,-5.34
2022-12-06T14:18:03.156Z,-5.33
2022-12-06T14:18:58.839Z,-5.33
2022-12-06T14:19:59.032Z,-5.34
2022-12-06T14:21:01.094Z,-5.36
2022-12-06T14:23:01.458Z,-5.42
2022-12-06T14:24:02.034Z,-5.39
2022-12-06T14:25:06.265Z,-5.38
2022-12-06T14:28:13.218Z,-5.37
2022-12-06T14:29:22.246Z,-5.31
2022-12-06T14:30:25.246Z,-5.29
2022-12-06T14:33:27.602Z,-5.34
2022-12-06T14:37:36.426Z,-5.33
2022-12-06T14:38:36.874Z,-5.35
2022-12-06T14:39:37.147Z,-5.32
2022-12-06T14:41:39.628Z,-5.33
2022-12-06T14:42:39.826Z,-5.35
2022-12-06T14:43:41.784Z,-5.35
2022-12-06T14:44:46.608Z,-5.33
2022-12-06T14:45:45.530Z,-5.34
2022-12-06T14:46:48.656Z,-5.35
2022-12-06T14:47:46.724Z,-5.38
2022-12-06T14:48:47.758Z,-5.37
2022-12-06T14:49:54.928Z,-5.37
2022-12-06T14:50:53.054Z,-5.35
2022-12-06T14:51:50.952Z,-5.32
2022-12-06T14:53:54.128Z,-5.3
2022-12-06T14:57:00.500Z,-5.31
2022-12-06T14:59:09.275Z,-5.36
2022-12-06T15:00:17.127Z,-5.37
2022-12-06T15:06:23.702Z,-5.33
2022-12-06T15:08:33.764Z,-5.31
2022-12-06T15:09:29.978Z,-5.29
2022-12-06T15:10:28.353Z,-5.35
2022-12-06T15:11:36.851Z,-5.42
2022-12-06T15:12:37.583Z,-5.39
2022-12-06T15:13:30.618Z,-5.35
2022-12-06T15:16:36.193Z,-5.34
2022-12-06T15:17:36.276Z,-5.35
2022-12-06T15:20:43.045Z,-5.37
2022-12-06T15:21:43.127Z,-5.4
2022-12-06T15:22:43.553Z,-5.35
2022-12-06T15:24:49.528Z,-5.32
2022-12-06T15:25:48.110Z,-5.31
2022-12-06T15:26:48.846Z,-5.33
2022-12-06T15:27:48.845Z,-5.33
2022-12-06T15:28:49.969Z,-5.36
2022-12-06T15:29:50.188Z,-5.38
2022-12-06T15:30:50.790Z,-5.33
2022-12-06T15:31:53.062Z,-5.33
2022-12-06T15:32:50.803Z,-5.31
2022-12-06T15:33:51.534Z,-5.26
2022-12-06T15:34:51.959Z,-5.32
2022-12-06T15:35:52.585Z,-5.37
2022-12-06T15:37:08.973Z,-5.37
2022-12-06T15:37:55.243Z,-5.37
2022-12-06T15:38:55.561Z,-5.36
2022-12-06T15:39:56.190Z,-5.36
2022-12-06T15:40:56.637Z,-5.39
2022-12-06T15:41:57.524Z,-5.36
2022-12-06T15:43:02.142Z,-5.37
2022-12-06T15:44:00.331Z,-5.34
2022-12-06T15:45:01.157Z,-5.39
2022-12-06T15:46:03.929Z,-5.43
2022-12-06T15:47:01.673Z,-5.39
2022-12-06T15:48:01.875Z,-5.36
2022-12-06T15:49:02.289Z,-5.36
2022-12-06T15:50:02.700Z,-5.35
2022-12-06T15:51:09.289Z,-5.34
2022-12-06T15:53:17.053Z,-5.34
2022-12-06T15:54:19.836Z,-5.34
2022-12-06T15:55:18.818Z,-5.34
2022-12-06T15:56:19.645Z,-5.37
2022-12-06T15:57:17.089Z,-5.38
2022-12-06T15:58:17.702Z,-5.4
2022-12-06T15:59:19.348Z,-5.37
2022-12-06T16:00:18.936Z,-5.35
2022-12-06T16:01:32.059Z,-5.38
2022-12-06T16:02:19.689Z,-5.36
2022-12-06T16:03:20.042Z,-5.31
2022-12-06T16:04:22.868Z,-5.34
2022-12-06T16:05:20.928Z,-5.41
2022-12-06T16:06:22.339Z,-5.39
2022-12-06T16:07:21.548Z,-5.36
2022-12-06T16:08:22.409Z,-5.39
2022-12-06T16:09:22.484Z,-5.38
2022-12-06T16:10:29.271Z,-5.37
2022-12-06T16:11:26.900Z,-5.33
2022-12-06T16:12:25.172Z,-5.32
2022-12-06T16:13:25.689Z,-5.34
2022-12-06T16:14:26.010Z,-5.31
2022-12-06T16:15:26.420Z,-5.3
2022-12-06T16:16:27.299Z,-5.32
2022-12-06T16:17:27.259Z,-5.28
2022-12-06T16:18:27.919Z,-5.26
2022-12-06T16:19:27.975Z,-5.29
2022-12-06T16:20:28.436Z,-5.3
2022-12-06T16:21:37.932Z,-5.32
2022-12-06T16:22:30.523Z,-5.38
2022-12-06T16:23:56.614Z,-5.38
2022-12-06T16:24:34.273Z,-5.33
2022-12-06T16:25:34.680Z,-5.33
2022-12-06T16:26:38.014Z,-5.32
2022-12-06T16:27:35.506Z,-5.26
2022-12-06T16:28:35.694Z,-5.25
2022-12-06T16:29:36.541Z,-5.39
2022-12-06T16:30:36.656Z,-5.35
2022-12-06T16:31:38.940Z,-5.32
2022-12-06T16:32:37.388Z,-5.26
2022-12-06T16:33:37.811Z,-5.22
2022-12-06T16:34:38.319Z,-5.24
2022-12-06T16:35:39.037Z,-5.22
2022-12-06T16:37:39.472Z,-5.29
2022-12-06T16:38:39.934Z,-5.3
2022-12-06T16:39:40.085Z,-5.31
2022-12-06T16:40:40.808Z,-5.3
2022-12-06T16:41:41.032Z,-5.3
2022-12-06T16:42:41.352Z,-5.3
2022-12-06T16:43:41.649Z,-5.31
2022-12-06T16:44:42.183Z,-5.35
2022-12-06T16:45:44.737Z,-5.34
2022-12-06T16:46:43.003Z,-5.35
2022-12-06T16:47:43.626Z,-5.32
2022-12-06T16:48:43.742Z,-5.34
2022-12-06T16:49:46.519Z,-5.37
2022-12-06T16:50:47.232Z,-5.38
2022-12-06T16:51:46.012Z,-5.31
2022-12-06T16:52:46.119Z,-5.28
2022-12-06T16:53:46.322Z,-5.31
2022-12-06T16:54:46.743Z,-5.31
2022-12-06T16:55:47.265Z,-5.3
2022-12-06T16:56:47.677Z,-5.32
2022-12-06T16:57:47.887Z,-5.33
2022-12-06T16:58:48.409Z,-5.38
2022-12-06T16:59:48.716Z,-5.38
2022-12-06T17:00:49.391Z,-5.38
2022-12-06T17:01:52.329Z,-5.38
2022-12-06T17:02:50.475Z,-5.33
2022-12-06T17:04:56.228Z,-5.33
2022-12-06T17:05:55.248Z,-5.33
2022-12-06T17:06:55.706Z,-5.32
2022-12-06T17:07:56.300Z,-5.31
2022-12-06T17:08:57.386Z,-5.33
2022-12-06T17:09:56.986Z,-5.33
2022-12-06T17:10:57.303Z,-5.35
2022-12-06T17:11:58.131Z,-5.32
2022-12-06T17:12:58.747Z,-5.33
2022-12-06T17:13:58.747Z,-5.31
2022-12-06T17:15:00.169Z,-5.33
2022-12-06T17:15:59.386Z,-5.34
2022-12-06T17:17:02.945Z,-5.32
2022-12-06T17:18:00.216Z,-5.34
2022-12-06T17:19:02.577Z,-5.32
2022-12-06T17:20:02.171Z,-5.32